Time;durP1;ratioP1;P1;durP2;ratioP2;P2;SDS_P1;SDS_P2;PMS_P1;PMS_P2;Temp;Humidity;BMP_temperature;BMP_pressure;BME280_temperature;BME280_humidity;BME280_pressure;Samples;Min_cycle;Max_cycle;Signal;HPM_P1;HPM_P2
2023/04/29 00:00:14;;;;;;;33.13;14.25;;;;;;;;;;5022961;28;20561;-77
2023/04/29 00:02:41;;;;;;;41.17;15.48;;;;;;;;;;5006021;28;20914;-77
2023/04/29 00:05:08;;;;;;;35.72;14.88;;;;;;;;;;5020342;28;20568;-77
2023/04/29 00:07:35;;;;;;;39.47;16.45;;;;;;;;;;5007362;28;20590;-77
2023/04/29 00:10:02;;;;;;;39.33;16.45;;;;;;;;;;5011366;28;20161;-77
2023/04/29 00:12:30;;;;;;;38.60;15.85;;;;;;;;;;5004147;28;20063;-77
2023/04/29 00:14:57;;;;;;;35.28;14.55;;;;;;;;;;5005309;28;20058;-77
2023/04/29 00:17:23;;;;;;;41.72;16.55;;;;;;;;;;5004932;28;20176;-77
2023/04/29 00:19:50;;;;;;;39.67;16.60;;;;;;;;;;5005085;28;20054;-77
2023/04/29 00:22:16;;;;;;;39.38;16.83;;;;;;;;;;5019269;28;20057;-78
2023/04/29 00:24:43;;;;;;;41.90;16.30;;;;;;;;;;5005451;28;20681;-77
2023/04/29 00:27:10;;;;;;;36.85;15.52;;;;;;;;;;5005070;28;20064;-77
2023/04/29 00:29:37;;;;;;;41.90;16.42;;;;;;;;;;5019930;28;20069;-77
2023/04/29 00:32:04;;;;;;;44.83;17.50;;;;;;;;;;5020327;28;20081;-77
2023/04/29 00:34:30;;;;;;;37.67;16.88;;;;;;;;;;5004843;28;20053;-77
2023/04/29 00:36:56;;;;;;;40.47;17.15;;;;;;;;;;5002804;28;20056;-77
2023/04/29 00:39:23;;;;;;;43.13;17.35;;;;;;;;;;5003643;28;20141;-78
2023/04/29 00:41:49;;;;;;;47.20;17.73;;;;;;;;;;5004513;28;20193;-78
2023/04/29 00:44:16;;;;;;;43.58;17.55;;;;;;;;;;5003943;28;20054;-77
2023/04/29 00:46:42;;;;;;;45.58;18.17;;;;;;;;;;5010899;28;20117;-78
2023/04/29 00:49:09;;;;;;;49.88;19.88;;;;;;;;;;5004647;28;20054;-78
2023/04/29 00:51:36;;;;;;;48.22;18.10;;;;;;;;;;5019846;28;20268;-77
2023/04/29 00:54:06;;;;;;;47.67;19.75;;;;;;;;;;5004888;28;20055;-77
2023/04/29 00:56:34;;;;;;;45.47;17.63;;;;;;;;;;5006577;28;20132;-77
2023/04/29 00:59:02;;;;;;;45.22;18.48;;;;;;;;;;5004839;28;21004;-77
2023/04/29 01:01:29;;;;;;;43.38;17.20;;;;;;;;;;5004495;28;20141;-76
2023/04/29 01:03:57;;;;;;;47.97;19.40;;;;;;;;;;5007305;28;20054;-78
2023/04/29 01:06:35;;;;;;;44.83;18.10;;;;;;;;;;5004954;28;20181;-78
2023/04/29 01:09:05;;;;;;;41.92;17.58;;;;;;;;;;5020359;28;20058;-77
2023/04/29 01:11:38;;;;;;;45.47;18.35;;;;;;;;;;5006276;28;20086;-77
2023/04/29 01:14:04;;;;;;;43.85;17.80;;;;;;;;;;5006338;28;20607;-78
2023/04/29 01:16:43;;;;;;;44.45;18.00;;;;;;;;;;5006364;28;20055;-78
2023/04/29 01:19:30;;;;;;;40.97;18.15;;;;;;;;;;5005597;28;20055;-77
2023/04/29 01:21:56;;;;;;;46.92;18.17;;;;;;;;;;5021115;28;21941;-78
2023/04/29 01:24:23;;;;;;;42.20;17.70;;;;;;;;;;5005342;28;21052;-78
2023/04/29 01:26:57;;;;;;;44.30;19.30;;;;;;;;;;5006946;28;20069;-77
2023/04/29 01:29:31;;;;;;;45.28;18.52;;;;;;;;;;5019350;28;20065;-78
2023/04/29 01:32:07;;;;;;;43.10;19.42;;;;;;;;;;5005147;28;20050;-77
2023/04/29 01:34:34;;;;;;;40.00;18.10;;;;;;;;;;5020618;28;20104;-78
2023/04/29 01:37:00;;;;;;;45.58;19.05;;;;;;;;;;5008013;28;20073;-77
2023/04/29 01:39:45;;;;;;;41.40;16.70;;;;;;;;;;5020317;28;20057;-78
2023/04/29 01:42:28;;;;;;;42.63;16.80;;;;;;;;;;5004526;28;20061;-78
2023/04/29 01:44:56;;;;;;;38.72;16.08;;;;;;;;;;5004267;28;20139;-77
2023/04/29 01:47:24;;;;;;;38.85;17.88;;;;;;;;;;5005251;28;20058;-77
2023/04/29 01:49:50;;;;;;;43.67;18.60;;;;;;;;;;5004342;28;20050;-78
2023/04/29 01:52:17;;;;;;;39.20;16.80;;;;;;;;;;5005816;28;20133;-78
2023/04/29 01:54:44;;;;;;;36.08;15.93;;;;;;;;;;5011834;28;20066;-78
2023/04/29 01:57:11;;;;;;;35.42;16.52;;;;;;;;;;5004875;28;20061;-77
2023/04/29 01:59:37;;;;;;;40.33;15.55;;;;;;;;;;5004585;28;20123;-77
2023/04/29 02:02:04;;;;;;;38.08;17.23;;;;;;;;;;5003814;28;20061;-78
2023/04/29 02:04:32;;;;;;;36.78;16.40;;;;;;;;;;5006329;28;20046;-77
2023/04/29 02:06:59;;;;;;;33.33;15.35;;;;;;;;;;5010585;28;20066;-77
2023/04/29 02:09:25;;;;;;;40.42;17.13;;;;;;;;;;5004388;28;20917;-78
2023/04/29 02:11:51;;;;;;;37.75;15.38;;;;;;;;;;5003617;28;20057;-78
2023/04/29 02:14:18;;;;;;;38.22;16.40;;;;;;;;;;5003643;28;20401;-78
2023/04/29 02:16:44;;;;;;;36.03;16.50;;;;;;;;;;5006008;28;20066;-77
2023/04/29 02:19:11;;;;;;;35.70;16.02;;;;;;;;;;5002506;28;20054;-77
2023/04/29 02:21:39;;;;;;;33.10;15.60;;;;;;;;;;5005058;28;20109;-78
2023/04/29 02:24:05;;;;;;;35.10;15.80;;;;;;;;;;5003965;28;20175;-78
2023/04/29 02:26:33;;;;;;;37.25;15.75;;;;;;;;;;5004761;28;20512;-77
2023/04/29 02:28:59;;;;;;;41.13;16.40;;;;;;;;;;5018675;28;20080;-77
2023/04/29 02:31:27;;;;;;;32.78;15.98;;;;;;;;;;5004127;28;20062;-78
2023/04/29 02:33:54;;;;;;;38.22;16.40;;;;;;;;;;5003307;28;20081;-78
2023/04/29 02:36:20;;;;;;;37.58;16.50;;;;;;;;;;5017924;28;20059;-78
2023/04/29 02:38:49;;;;;;;32.15;15.13;;;;;;;;;;5017959;28;20061;-78
2023/04/29 02:41:16;;;;;;;33.65;17.55;;;;;;;;;;5002540;28;20065;-78
2023/04/29 02:43:43;;;;;;;31.83;15.07;;;;;;;;;;5003403;28;20192;-78
2023/04/29 02:46:10;;;;;;;36.53;15.82;;;;;;;;;;5002519;28;20055;-78
2023/04/29 02:48:36;;;;;;;30.60;15.23;;;;;;;;;;5004388;28;20053;-78
2023/04/29 02:51:03;;;;;;;36.10;16.77;;;;;;;;;;5003771;28;20061;-77
2023/04/29 02:53:29;;;;;;;31.10;14.77;;;;;;;;;;5018849;28;20054;-77
2023/04/29 02:55:56;;;;;;;30.50;14.80;;;;;;;;;;5003414;28;20064;-78
2023/04/29 02:58:22;;;;;;;32.95;14.95;;;;;;;;;;5002518;28;20051;-77
2023/04/29 03:00:49;;;;;;;30.13;14.18;;;;;;;;;;5006448;28;20691;-78
2023/04/29 03:03:16;;;;;;;27.63;13.32;;;;;;;;;;5006146;28;20069;-78
2023/04/29 03:05:43;;;;;;;32.35;14.73;;;;;;;;;;5006585;28;20513;-78
2023/04/29 03:08:10;;;;;;;29.42;13.70;;;;;;;;;;5006206;28;20509;-78
2023/04/29 03:10:36;;;;;;;30.27;13.48;;;;;;;;;;5006940;28;20050;-78
2023/04/29 03:13:05;;;;;;;28.67;13.40;;;;;;;;;;5007518;28;20058;-79
2023/04/29 03:15:32;;;;;;;27.90;13.38;;;;;;;;;;5007802;28;20051;-78
2023/04/29 03:18:00;;;;;;;31.02;13.77;;;;;;;;;;5006028;28;20055;-78
2023/04/29 03:20:28;;;;;;;32.85;14.55;;;;;;;;;;5007864;28;20054;-78
2023/04/29 03:22:54;;;;;;;29.52;13.20;;;;;;;;;;5007441;28;20050;-78
2023/04/29 03:25:23;;;;;;;27.48;12.77;;;;;;;;;;5006256;28;20538;-78
2023/04/29 03:27:49;;;;;;;30.17;14.13;;;;;;;;;;5007075;28;20058;-78
2023/04/29 03:30:16;;;;;;;31.45;13.40;;;;;;;;;;5006458;28;20095;-78
2023/04/29 03:32:43;;;;;;;26.20;13.00;;;;;;;;;;5021509;28;20145;-78
2023/04/29 03:35:10;;;;;;;25.88;13.35;;;;;;;;;;5006638;28;20060;-78
2023/04/29 03:37:43;;;;;;;28.35;13.75;;;;;;;;;;5004303;28;20054;-78
2023/04/29 03:40:10;;;;;;;24.77;13.30;;;;;;;;;;5007021;28;20061;-77
2023/04/29 03:42:36;;;;;;;24.98;13.45;;;;;;;;;;5005974;28;20124;-77
2023/04/29 03:45:02;;;;;;;24.08;13.07;;;;;;;;;;5006730;28;20051;-78
2023/04/29 03:47:29;;;;;;;31.50;13.65;;;;;;;;;;5005616;28;20058;-77
2023/04/29 03:49:55;;;;;;;26.95;12.75;;;;;;;;;;5004650;28;20062;-77
2023/04/29 03:52:21;;;;;;;29.80;12.20;;;;;;;;;;5007651;28;20192;-78
2023/04/29 03:54:48;;;;;;;25.48;12.57;;;;;;;;;;5005576;28;20139;-77
2023/04/29 03:57:14;;;;;;;24.65;13.60;;;;;;;;;;5006564;28;20141;-78
2023/04/29 03:59:41;;;;;;;28.98;13.55;;;;;;;;;;5006240;28;20050;-78
2023/04/29 04:02:07;;;;;;;31.13;12.80;;;;;;;;;;5007285;28;20596;-78
2023/04/29 04:04:34;;;;;;;24.52;12.48;;;;;;;;;;5006273;28;20062;-78
2023/04/29 04:07:02;;;;;;;28.38;14.02;;;;;;;;;;5005725;28;20080;-78
2023/04/29 04:09:29;;;;;;;29.73;14.07;;;;;;;;;;5005233;28;20558;-78
2023/04/29 04:11:55;;;;;;;23.88;12.02;;;;;;;;;;5004791;28;20058;-78
2023/04/29 04:14:21;;;;;;;28.67;13.52;;;;;;;;;;5006394;28;20058;-78
2023/04/29 04:16:49;;;;;;;27.17;13.57;;;;;;;;;;5021692;28;20059;-78
2023/04/29 04:19:15;;;;;;;22.80;12.50;;;;;;;;;;5004176;28;20125;-78
2023/04/29 04:21:42;;;;;;;23.08;12.85;;;;;;;;;;5006208;28;20140;-78
2023/04/29 04:24:08;;;;;;;23.60;12.57;;;;;;;;;;5004289;28;20061;-77
2023/04/29 04:26:35;;;;;;;27.30;12.65;;;;;;;;;;5005198;28;20061;-78
2023/04/29 04:29:01;;;;;;;25.48;12.60;;;;;;;;;;5005448;28;20070;-78
2023/04/29 04:31:28;;;;;;;27.27;13.57;;;;;;;;;;5005849;28;20137;-79
2023/04/29 04:33:55;;;;;;;25.70;12.88;;;;;;;;;;5020129;28;20062;-77
2023/04/29 04:36:21;;;;;;;23.67;12.38;;;;;;;;;;5005316;28;20098;-78
2023/04/29 04:38:47;;;;;;;23.17;12.35;;;;;;;;;;5005010;28;20060;-78
2023/04/29 04:41:14;;;;;;;27.20;12.10;;;;;;;;;;5006665;28;20058;-78
2023/04/29 04:43:41;;;;;;;24.75;12.75;;;;;;;;;;5020418;28;20150;-78
2023/04/29 04:46:11;;;;;;;21.73;11.63;;;;;;;;;;5006067;28;20063;-77
2023/04/29 04:48:37;;;;;;;22.55;12.25;;;;;;;;;;5007018;28;20066;-78
2023/04/29 04:51:10;;;;;;;20.88;11.63;;;;;;;;;;5007114;28;20600;-79
2023/04/29 04:53:37;;;;;;;20.17;11.60;;;;;;;;;;5005431;28;20054;-79
2023/04/29 04:56:04;;;;;;;23.75;11.77;;;;;;;;;;5003930;28;20058;-77
2023/04/29 04:58:31;;;;;;;22.92;12.35;;;;;;;;;;5003713;28;20145;-77
2023/04/29 05:01:01;;;;;;;19.48;11.65;;;;;;;;;;5007190;28;20256;-80
2023/04/29 05:03:27;;;;;;;23.08;11.77;;;;;;;;;;5007432;28;20115;-78
2023/04/29 05:05:58;;;;;;;20.73;11.63;;;;;;;;;;5005719;28;20137;-77
2023/04/29 05:08:25;;;;;;;22.13;11.65;;;;;;;;;;5002014;28;20969;-78
2023/04/29 05:10:51;;;;;;;20.42;11.63;;;;;;;;;;5005480;28;20145;-77
2023/04/29 05:13:19;;;;;;;23.38;12.00;;;;;;;;;;5006792;28;20066;-78
2023/04/29 05:15:46;;;;;;;22.40;11.57;;;;;;;;;;5005178;28;20062;-78
2023/04/29 05:18:12;;;;;;;24.95;12.35;;;;;;;;;;5004009;28;20169;-78
2023/04/29 05:20:38;;;;;;;22.38;11.82;;;;;;;;;;5004893;28;20090;-79
2023/04/29 05:23:05;;;;;;;23.55;11.70;;;;;;;;;;5006063;28;20050;-78
2023/04/29 05:25:31;;;;;;;22.33;11.60;;;;;;;;;;5005527;28;20065;-79
2023/04/29 05:27:58;;;;;;;22.88;12.00;;;;;;;;;;5003622;28;20093;-77
2023/04/29 05:30:24;;;;;;;19.80;11.02;;;;;;;;;;5004010;28;21076;-76
2023/04/29 05:32:50;;;;;;;20.48;11.45;;;;;;;;;;5004607;28;20098;-78
2023/04/29 05:35:17;;;;;;;19.48;10.50;;;;;;;;;;5004260;28;20062;-78
2023/04/29 05:37:43;;;;;;;21.35;10.38;;;;;;;;;;5004523;28;20516;-78
2023/04/29 05:40:10;;;;;;;27.00;11.38;;;;;;;;;;5005534;28;20057;-76
2023/04/29 05:42:37;;;;;;;24.63;11.32;;;;;;;;;;5006480;28;20189;-76
2023/04/29 05:45:03;;;;;;;21.25;11.18;;;;;;;;;;5005397;28;20196;-77
2023/04/29 05:47:30;;;;;;;22.17;11.43;;;;;;;;;;5005274;28;20054;-79
2023/04/29 05:49:56;;;;;;;20.02;11.00;;;;;;;;;;5005018;28;20062;-78
2023/04/29 05:52:23;;;;;;;22.45;11.88;;;;;;;;;;5004641;28;20532;-78
2023/04/29 05:54:49;;;;;;;22.27;10.85;;;;;;;;;;5003010;28;20058;-78
2023/04/29 05:57:15;;;;;;;20.58;10.68;;;;;;;;;;5003769;28;20081;-78
2023/04/29 05:59:42;;;;;;;21.25;11.30;;;;;;;;;;5003871;28;20729;-76
2023/04/29 06:02:09;;;;;;;22.33;11.13;;;;;;;;;;5003084;28;20078;-79
2023/04/29 06:04:36;;;;;;;21.73;11.48;;;;;;;;;;5006108;28;20050;-77
2023/04/29 06:07:04;;;;;;;23.10;11.35;;;;;;;;;;5011959;28;20093;-78
2023/04/29 06:09:30;;;;;;;21.60;10.18;;;;;;;;;;5007798;28;20056;-79
2023/04/29 06:11:56;;;;;;;24.20;12.02;;;;;;;;;;5023789;28;20058;-78
2023/04/29 06:14:23;;;;;;;23.00;11.32;;;;;;;;;;5005317;28;20062;-77
2023/04/29 06:16:49;;;;;;;21.40;11.95;;;;;;;;;;5008932;28;20054;-78
2023/04/29 06:19:15;;;;;;;23.55;11.60;;;;;;;;;;5006526;28;20062;-78
2023/04/29 06:21:42;;;;;;;22.38;11.63;;;;;;;;;;5000398;28;20046;-77
2023/04/29 06:24:08;;;;;;;20.95;11.23;;;;;;;;;;5008426;28;20173;-77
2023/04/29 06:26:35;;;;;;;23.02;10.80;;;;;;;;;;5003343;28;20110;-77
2023/04/29 06:29:01;;;;;;;23.23;11.88;;;;;;;;;;5001955;28;20050;-78
2023/04/29 06:31:28;;;;;;;25.40;11.30;;;;;;;;;;5004457;28;20054;-78
2023/04/29 06:33:54;;;;;;;20.67;10.75;;;;;;;;;;5021021;28;20506;-78
2023/04/29 06:36:20;;;;;;;22.83;11.07;;;;;;;;;;5008741;28;20061;-78
2023/04/29 06:38:47;;;;;;;19.95;10.57;;;;;;;;;;5003580;28;20054;-77
2023/04/29 06:41:13;;;;;;;19.48;11.10;;;;;;;;;;5003886;28;20238;-77
2023/04/29 06:43:42;;;;;;;21.38;10.18;;;;;;;;;;5003202;28;20860;-76
2023/04/29 06:46:08;;;;;;;21.83;11.13;;;;;;;;;;5003286;28;20441;-76
2023/04/29 06:48:35;;;;;;;19.30;10.82;;;;;;;;;;5002536;28;20626;-79
2023/04/29 06:51:01;;;;;;;23.17;9.90;;;;;;;;;;5015966;28;20436;-78
2023/04/29 06:53:28;;;;;;;21.55;10.45;;;;;;;;;;5013476;28;20062;-77
2023/04/29 06:55:54;;;;;;;20.60;10.07;;;;;;;;;;5002407;28;20460;-77
2023/04/29 06:58:22;;;;;;;21.90;10.50;;;;;;;;;;5004789;28;20558;-76
2023/04/29 07:00:49;;;;;;;20.45;10.32;;;;;;;;;;5001084;28;20109;-78
2023/04/29 07:03:17;;;;;;;20.30;10.43;;;;;;;;;;5007738;28;20100;-79
2023/04/29 07:05:46;;;;;;;22.23;10.57;;;;;;;;;;5006143;28;20050;-77
2023/04/29 07:08:13;;;;;;;22.30;10.10;;;;;;;;;;5009024;28;20562;-80
2023/04/29 07:10:40;;;;;;;21.73;9.75;;;;;;;;;;5007826;28;20169;-79
2023/04/29 07:13:07;;;;;;;17.13;9.57;;;;;;;;;;5023052;28;21824;-80
2023/04/29 07:15:33;;;;;;;23.42;9.65;;;;;;;;;;5009491;28;20430;-79
2023/04/29 07:18:00;;;;;;;22.10;9.82;;;;;;;;;;5011700;28;20158;-79
2023/04/29 07:20:26;;;;;;;19.33;10.00;;;;;;;;;;5006346;28;20089;-79
2023/04/29 07:22:53;;;;;;;23.25;9.43;;;;;;;;;;5015604;28;20578;-79
2023/04/29 07:25:19;;;;;;;18.05;9.05;;;;;;;;;;5021831;28;20058;-79
2023/04/29 07:27:46;;;;;;;17.45;9.13;;;;;;;;;;5008180;28;21129;-78
2023/04/29 07:30:13;;;;;;;20.45;9.32;;;;;;;;;;5020195;28;20269;-80
2023/04/29 07:32:39;;;;;;;19.35;9.07;;;;;;;;;;5026215;28;20064;-79
2023/04/29 07:35:06;;;;;;;16.45;8.30;;;;;;;;;;5027047;28;20583;-79
2023/04/29 07:37:32;;;;;;;16.20;8.13;;;;;;;;;;5025253;28;20081;-77
2023/04/29 07:39:59;;;;;;;15.65;7.95;;;;;;;;;;5015058;28;20058;-78
2023/04/29 07:42:25;;;;;;;16.63;8.00;;;;;;;;;;5020590;28;20142;-77
2023/04/29 07:44:51;;;;;;;15.00;8.40;;;;;;;;;;5010142;28;20054;-79
2023/04/29 07:47:18;;;;;;;15.85;7.90;;;;;;;;;;5030749;28;20062;-79
2023/04/29 07:49:44;;;;;;;15.13;7.97;;;;;;;;;;5030824;28;20176;-78
2023/04/29 07:52:11;;;;;;;18.15;8.48;;;;;;;;;;5042566;28;20062;-78
2023/04/29 07:54:37;;;;;;;16.23;8.05;;;;;;;;;;5008007;28;20509;-78
2023/04/29 07:57:04;;;;;;;14.23;8.23;;;;;;;;;;5017370;28;20061;-77
2023/04/29 07:59:30;;;;;;;17.77;7.32;;;;;;;;;;5020399;28;20065;-78
2023/04/29 08:02:00;;;;;;;16.42;7.95;;;;;;;;;;5014263;28;20523;-79
2023/04/29 08:04:26;;;;;;;16.95;6.97;;;;;;;;;;5015009;28;20084;-78
2023/04/29 08:06:53;;;;;;;12.65;7.38;;;;;;;;;;5018710;28;20049;-79
2023/04/29 08:09:20;;;;;;;15.98;7.28;;;;;;;;;;5022582;28;20057;-78
2023/04/29 08:11:46;;;;;;;13.88;6.95;;;;;;;;;;5009122;28;20060;-78
2023/04/29 08:14:12;;;;;;;16.60;6.80;;;;;;;;;;5012831;28;20050;-77
2023/04/29 08:16:39;;;;;;;13.00;6.10;;;;;;;;;;5023511;28;20499;-78
2023/04/29 08:19:05;;;;;;;13.02;6.43;;;;;;;;;;5015307;28;20062;-78
2023/04/29 08:21:32;;;;;;;17.75;6.90;;;;;;;;;;5010986;28;20056;-79
2023/04/29 08:23:58;;;;;;;13.23;6.85;;;;;;;;;;5021459;28;20061;-78
2023/04/29 08:26:25;;;;;;;11.02;6.18;;;;;;;;;;5028470;28;20065;-78
2023/04/29 08:28:55;;;;;;;10.32;5.60;;;;;;;;;;5039323;28;20133;-78
2023/04/29 08:31:21;;;;;;;10.43;5.47;;;;;;;;;;5008633;28;20145;-79
2023/04/29 08:33:48;;;;;;;13.77;5.97;;;;;;;;;;5006276;28;20514;-80
2023/04/29 08:36:14;;;;;;;12.30;5.47;;;;;;;;;;5006047;28;20058;-79
2023/04/29 08:38:40;;;;;;;9.43;5.40;;;;;;;;;;5009790;28;20089;-80
2023/04/29 08:41:10;;;;;;;11.88;5.38;;;;;;;;;;5010466;28;20057;-82
2023/04/29 08:43:39;;;;;;;13.20;5.80;;;;;;;;;;5006563;28;20160;-81
2023/04/29 08:46:06;;;;;;;11.07;5.95;;;;;;;;;;5007945;28;20060;-79
2023/04/29 08:48:35;;;;;;;12.00;5.28;;;;;;;;;;5025312;28;20145;-79
2023/04/29 08:51:02;;;;;;;10.10;5.85;;;;;;;;;;5008069;28;20056;-79
2023/04/29 08:53:29;;;;;;;9.80;5.47;;;;;;;;;;5007677;28;20055;-78
2023/04/29 08:55:56;;;;;;;9.95;5.50;;;;;;;;;;5006045;28;20055;-80
2023/04/29 08:58:24;;;;;;;11.07;5.32;;;;;;;;;;5008112;28;20536;-79
2023/04/29 09:00:50;;;;;;;11.40;5.78;;;;;;;;;;5007416;28;20132;-79
2023/04/29 09:03:23;;;;;;;9.38;5.22;;;;;;;;;;5005629;28;22348;-78
2023/04/29 09:05:52;;;;;;;10.13;5.60;;;;;;;;;;5005012;28;20054;-81
2023/04/29 09:08:20;;;;;;;10.73;5.70;;;;;;;;;;5010491;28;20063;-80
2023/04/29 09:10:46;;;;;;;11.20;5.50;;;;;;;;;;5010781;28;20802;-81
2023/04/29 09:13:26;;;;;;;10.75;5.50;;;;;;;;;;5009242;28;20149;-81
2023/04/29 09:15:52;;;;;;;8.02;4.50;;;;;;;;;;5010512;28;20145;-78
2023/04/29 09:18:38;;;;;;;13.70;5.30;;;;;;;;;;5010808;28;20133;-81
2023/04/29 09:21:13;;;;;;;9.77;5.00;;;;;;;;;;5007668;28;20532;-78
2023/04/29 09:23:40;;;;;;;10.98;5.53;;;;;;;;;;5007721;28;20065;-77
2023/04/29 09:26:06;;;;;;;10.48;5.57;;;;;;;;;;5012840;28;20058;-78
2023/04/29 09:28:32;;;;;;;11.00;5.35;;;;;;;;;;5011494;28;20058;-79
2023/04/29 09:31:00;;;;;;;10.65;5.28;;;;;;;;;;5009225;28;20058;-81
2023/04/29 09:33:30;;;;;;;10.07;5.15;;;;;;;;;;5007154;28;20070;-81
2023/04/29 09:35:56;;;;;;;9.88;4.90;;;;;;;;;;5008674;28;20054;-81
2023/04/29 09:38:22;;;;;;;11.38;5.70;;;;;;;;;;5009982;28;20424;-78
2023/04/29 09:40:50;;;;;;;10.60;5.60;;;;;;;;;;5008550;28;20049;-78
2023/04/29 09:43:22;;;;;;;10.73;5.85;;;;;;;;;;5009120;28;20480;-81
2023/04/29 09:45:49;;;;;;;11.13;5.60;;;;;;;;;;5005835;28;20054;-78
2023/04/29 09:48:16;;;;;;;11.98;5.43;;;;;;;;;;5006571;28;20162;-79
2023/04/29 09:50:58;;;;;;;10.95;5.03;;;;;;;;;;5011951;28;20069;-79
2023/04/29 09:53:28;;;;;;;9.85;5.10;;;;;;;;;;5006518;28;20562;-78
2023/04/29 09:55:59;;;;;;;10.93;5.07;;;;;;;;;;5007374;28;20047;-78
2023/04/29 09:58:35;;;;;;;8.02;4.40;;;;;;;;;;5010546;28;20174;-79
2023/04/29 10:01:03;;;;;;;11.23;5.32;;;;;;;;;;5006719;28;20142;-78
2023/04/29 10:03:31;;;;;;;9.18;5.32;;;;;;;;;;5009283;28;20061;-81
2023/04/29 10:05:59;;;;;;;9.68;4.60;;;;;;;;;;5023611;28;20137;-79
2023/04/29 10:08:27;;;;;;;9.95;4.95;;;;;;;;;;5005152;28;20057;-79
2023/04/29 10:10:56;;;;;;;9.07;4.80;;;;;;;;;;5006236;28;20073;-79
2023/04/29 10:13:24;;;;;;;11.05;4.47;;;;;;;;;;5007534;28;20060;-78
2023/04/29 10:15:56;;;;;;;11.55;4.30;;;;;;;;;;5002698;28;20082;-78
2023/04/29 10:18:28;;;;;;;8.38;4.50;;;;;;;;;;5005790;28;20132;-78
2023/04/29 10:20:56;;;;;;;9.18;4.32;;;;;;;;;;5006584;28;20097;-79
2023/04/29 10:23:23;;;;;;;9.52;4.75;;;;;;;;;;5006034;28;20517;-79
2023/04/29 10:25:51;;;;;;;9.57;4.75;;;;;;;;;;5003908;28;20061;-78
2023/04/29 10:28:18;;;;;;;10.23;4.13;;;;;;;;;;5003159;28;20051;-77
2023/04/29 10:30:49;;;;;;;10.27;3.95;;;;;;;;;;5017530;28;20058;-79
2023/04/29 10:33:16;;;;;;;9.02;4.60;;;;;;;;;;5015196;28;20060;-79
2023/04/29 10:35:43;;;;;;;11.65;4.50;;;;;;;;;;5004034;28;20085;-77
2023/04/29 10:38:14;;;;;;;12.25;4.88;;;;;;;;;;5009519;28;20060;-78
2023/04/29 10:40:53;;;;;;;12.95;4.80;;;;;;;;;;5022272;28;20135;-78
2023/04/29 10:43:23;;;;;;;9.32;4.72;;;;;;;;;;5020477;28;20050;-78
2023/04/29 10:45:49;;;;;;;10.57;4.53;;;;;;;;;;5007394;28;20057;-78
2023/04/29 10:48:17;;;;;;;10.20;4.30;;;;;;;;;;5005721;28;20057;-78
2023/04/29 10:50:47;;;;;;;8.02;4.43;;;;;;;;;;5021829;28;20888;-79
2023/04/29 10:53:14;;;;;;;9.45;5.03;;;;;;;;;;5003849;28;20062;-79
2023/04/29 10:55:41;;;;;;;10.05;4.63;;;;;;;;;;5006897;28;20970;-79
2023/04/29 10:58:30;;;;;;;7.47;4.00;;;;;;;;;;5006269;28;20055;-77
2023/04/29 11:00:57;;;;;;;7.93;4.07;;;;;;;;;;5007037;28;20465;-78
2023/04/29 11:03:43;;;;;;;8.25;3.92;;;;;;;;;;5008377;28;20042;-78
2023/04/29 11:06:10;;;;;;;8.35;3.80;;;;;;;;;;5006072;28;20469;-78
2023/04/29 11:08:38;;;;;;;11.25;4.38;;;;;;;;;;5007047;28;20060;-78
2023/04/29 11:11:08;;;;;;;7.53;4.00;;;;;;;;;;5005526;28;20060;-80
2023/04/29 11:13:38;;;;;;;6.70;3.58;;;;;;;;;;5004189;28;20528;-78
2023/04/29 11:16:05;;;;;;;8.32;4.07;;;;;;;;;;5005601;28;20077;-79
2023/04/29 11:18:33;;;;;;;7.35;3.58;;;;;;;;;;5001989;28;20167;-78
2023/04/29 11:21:03;;;;;;;8.30;4.28;;;;;;;;;;5008300;28;20509;-79
2023/04/29 11:23:30;;;;;;;9.50;3.85;;;;;;;;;;5027870;28;20056;-79
2023/04/29 11:25:56;;;;;;;7.65;4.18;;;;;;;;;;5012117;28;20101;-79
2023/04/29 11:28:23;;;;;;;8.32;3.53;;;;;;;;;;5011668;28;20057;-79
2023/04/29 11:30:50;;;;;;;8.23;4.25;;;;;;;;;;5009318;28;20517;-79
2023/04/29 11:33:18;;;;;;;7.13;3.75;;;;;;;;;;5009401;28;20170;-79
2023/04/29 11:35:46;;;;;;;7.80;4.00;;;;;;;;;;5009335;28;20054;-79
2023/04/29 11:38:12;;;;;;;8.15;3.72;;;;;;;;;;5011428;28;20049;-79
2023/04/29 11:40:41;;;;;;;6.45;3.75;;;;;;;;;;5006602;28;20061;-79
2023/04/29 11:43:08;;;;;;;6.50;3.75;;;;;;;;;;5013598;28;20520;-79
2023/04/29 11:45:34;;;;;;;8.40;3.88;;;;;;;;;;5011650;28;20094;-79
2023/04/29 11:48:02;;;;;;;7.10;3.47;;;;;;;;;;5009757;28;20069;-79
2023/04/29 11:50:31;;;;;;;7.30;3.55;;;;;;;;;;5009364;28;20262;-79
2023/04/29 11:52:57;;;;;;;6.80;3.80;;;;;;;;;;5016382;28;20058;-79
2023/04/29 11:55:24;;;;;;;6.38;3.20;;;;;;;;;;5012086;28;20447;-79
2023/04/29 11:57:51;;;;;;;7.78;3.65;;;;;;;;;;5012084;28;20185;-79
2023/04/29 12:00:17;;;;;;;7.68;3.95;;;;;;;;;;5006483;28;20054;-79
2023/04/29 12:02:47;;;;;;;6.75;3.90;;;;;;;;;;5012455;28;20161;-78
2023/04/29 12:05:15;;;;;;;;;;;;;;;;;;5011903;28;20136;-79
2023/04/29 12:07:42;;;;;;;6.88;4.22;;;;;;;;;;5021498;28;47069;-79
2023/04/29 12:10:09;;;;;;;8.80;4.53;;;;;;;;;;5008185;28;20051;-78
2023/04/29 12:12:42;;;;;;;7.93;4.68;;;;;;;;;;5005819;28;20058;-78
2023/04/29 12:15:09;;;;;;;7.68;4.30;;;;;;;;;;5007260;28;20137;-78
2023/04/29 12:17:36;;;;;;;6.25;3.90;;;;;;;;;;5011719;28;20108;-78
2023/04/29 12:20:02;;;;;;;6.32;3.75;;;;;;;;;;5019392;28;20058;-79
2023/04/29 12:22:32;;;;;;;8.05;4.20;;;;;;;;;;5008653;28;20053;-79
2023/04/29 12:24:58;;;;;;;7.30;4.60;;;;;;;;;;5034897;28;20064;-78
2023/04/29 12:27:25;;;;;;;8.80;4.35;;;;;;;;;;5030374;28;20054;-78
2023/04/29 12:29:52;;;;;;;8.20;4.15;;;;;;;;;;5017547;28;20525;-78
2023/04/29 12:32:21;;;;;;;9.10;4.10;;;;;;;;;;5008081;28;20145;-79
2023/04/29 12:34:49;;;;;;;8.32;4.15;;;;;;;;;;5013188;28;20575;-78
2023/04/29 12:37:16;;;;;;;9.48;3.90;;;;;;;;;;5014094;28;20054;-79
2023/04/29 12:39:42;;;;;;;9.60;4.60;;;;;;;;;;5021941;28;20054;-78
2023/04/29 12:42:18;;;;;;;8.60;4.47;;;;;;;;;;5036818;28;20156;-78
2023/04/29 12:44:46;;;;;;;10.82;4.38;;;;;;;;;;5030871;28;20061;-78
2023/04/29 12:47:14;;;;;;;7.50;4.57;;;;;;;;;;5017436;28;20142;-78
2023/04/29 12:49:42;;;;;;;9.35;4.95;;;;;;;;;;5013906;28;20154;-78
2023/04/29 12:52:09;;;;;;;7.70;4.00;;;;;;;;;;5010822;28;20060;-78
2023/04/29 12:54:36;;;;;;;8.55;3.97;;;;;;;;;;5011540;28;20053;-78
2023/04/29 12:57:03;;;;;;;7.05;4.07;;;;;;;;;;5026258;28;20049;-78
2023/04/29 12:59:29;;;;;;;20.77;12.00;;;;;;;;;;5033584;28;20053;-78
2023/04/29 13:01:56;;;;;;;18.10;9.77;;;;;;;;;;5019322;28;20447;-78
2023/04/29 13:04:22;;;;;;;8.05;4.80;;;;;;;;;;5020620;28;20115;-79
2023/04/29 13:06:53;;;;;;;5.68;3.00;;;;;;;;;;5019001;28;20054;-78
2023/04/29 13:09:19;;;;;;;9.55;5.78;;;;;;;;;;5030505;28;20053;-79
2023/04/29 13:11:46;;;;;;;19.77;10.73;;;;;;;;;;5024299;28;20113;-79
2023/04/29 13:14:12;;;;;;;10.27;5.63;;;;;;;;;;5014340;28;20063;-78
2023/04/29 13:16:39;;;;;;;11.13;6.15;;;;;;;;;;5028874;28;20136;-79
2023/04/29 13:19:06;;;;;;;9.95;5.00;;;;;;;;;;5042162;28;20058;-79
2023/04/29 13:21:52;;;;;;;10.10;5.07;;;;;;;;;;5022121;28;20186;-81
2023/04/29 13:24:19;;;;;;;9.18;4.78;;;;;;;;;;5012209;28;20050;-78
2023/04/29 13:26:47;;;;;;;8.85;4.38;;;;;;;;;;5013699;28;20077;-82
2023/04/29 13:29:16;;;;;;;10.65;5.20;;;;;;;;;;5017756;28;20660;-79
2023/04/29 13:31:42;;;;;;;8.50;5.07;;;;;;;;;;5019021;28;20069;-78
2023/04/29 13:34:09;;;;;;;8.80;4.80;;;;;;;;;;5034096;28;20156;-77
2023/04/29 13:36:35;;;;;;;8.50;3.83;;;;;;;;;;5013093;28;20699;-77
2023/04/29 13:39:02;;;;;;;7.57;3.53;;;;;;;;;;5009667;28;20058;-77
2023/04/29 13:41:28;;;;;;;6.75;3.97;;;;;;;;;;5023559;28;20049;-77
2023/04/29 13:44:00;;;;;;;9.80;4.25;;;;;;;;;;5024146;28;20054;-77
2023/04/29 13:46:27;;;;;;;10.00;4.72;;;;;;;;;;5020441;28;20054;-78
2023/04/29 13:48:56;;;;;;;8.02;3.85;;;;;;;;;;5008537;28;20169;-77
2023/04/29 13:51:43;;;;;;;9.20;6.10;;;;;;;;;;5022122;28;20057;-77
2023/04/29 13:54:12;;;;;;;7.82;4.15;;;;;;;;;;5024701;28;20056;-77
2023/04/29 13:56:41;;;;;;;9.32;4.22;;;;;;;;;;5033716;28;20066;-77
2023/04/29 13:59:28;;;;;;;7.47;4.07;;;;;;;;;;5008041;28;20058;-77
2023/04/29 14:02:13;;;;;;;11.20;4.47;;;;;;;;;;5004798;28;20090;-77
2023/04/29 14:04:51;;;;;;;7.90;4.18;;;;;;;;;;5037725;28;20501;-77
2023/04/29 14:07:19;;;;;;;9.20;4.50;;;;;;;;;;5027769;28;20049;-77
2023/04/29 14:09:45;;;;;;;7.57;4.13;;;;;;;;;;5024485;28;20046;-76
2023/04/29 14:12:12;;;;;;;10.20;4.43;;;;;;;;;;5018066;28;20102;-77
2023/04/29 14:14:38;;;;;;;7.20;4.18;;;;;;;;;;5017789;28;20062;-76
2023/04/29 14:17:04;;;;;;;9.13;4.22;;;;;;;;;;5004842;28;20084;-77
2023/04/29 14:19:31;;;;;;;10.68;4.40;;;;;;;;;;5016031;28;20057;-77
2023/04/29 14:21:57;;;;;;;7.40;4.03;;;;;;;;;;5009409;28;20535;-77
2023/04/29 14:24:23;;;;;;;10.60;4.97;;;;;;;;;;5036795;28;21189;-77
2023/04/29 14:26:51;;;;;;;9.07;4.40;;;;;;;;;;5033898;28;20061;-77
2023/04/29 14:29:17;;;;;;;9.15;4.45;;;;;;;;;;5043948;28;20771;-77